Time;durP1;ratioP1;P1;durP2;ratioP2;P2;SDS_P1;SDS_P2;PMS_P1;PMS_P2;Temp;Humidity;BMP_temperature;BMP_pressure;BME280_temperature;BME280_humidity;BME280_pressure;Samples;Min_cycle;Max_cycle;Signal;HPM_P1;HPM_P2
2022/05/29 00:00:24;;;;;;;11.73;3.90;;;;;;;12.31;55.18;101897.44;5155467;28;20484;-44
2022/05/29 00:02:57;;;;;;;14.55;3.97;;;;;;;12.27;55.09;101894.25;5153088;28;20454;-42
2022/05/29 00:05:30;;;;;;;7.63;3.60;;;;;;;12.26;55.17;101892.53;5153567;28;20484;-42
2022/05/29 00:08:03;;;;;;;12.98;3.58;;;;;;;12.17;55.18;101886.25;5156009;28;20524;-43
2022/05/29 00:10:41;;;;;;;12.13;4.22;;;;;;;12.20;55.21;101888.66;5157102;28;20424;-43
2022/05/29 00:13:13;;;;;;;16.38;3.92;;;;;;;12.16;55.40;101878.44;5152557;28;20493;-50
2022/05/29 00:15:46;;;;;;;14.57;3.93;;;;;;;12.16;55.34;101886.38;5153990;28;20869;-43
2022/05/29 00:18:19;;;;;;;10.00;3.92;;;;;;;11.97;55.22;101856.22;5150733;28;21600;-42
2022/05/29 00:20:55;;;;;;;12.60;4.00;;;;;;;12.09;55.43;101879.97;5157455;28;20491;-43
2022/05/29 00:23:30;;;;;;;14.27;3.75;;;;;;;12.14;55.49;101890.97;5159906;28;20505;-43
2022/05/29 00:26:04;;;;;;;14.45;3.90;;;;;;;11.96;55.53;101856.38;5154621;28;20438;-42
2022/05/29 00:28:37;;;;;;;12.80;4.05;;;;;;;12.16;55.62;101875.78;5151980;28;20523;-42
2022/05/29 00:31:10;;;;;;;14.45;4.00;;;;;;;11.96;55.72;101859.84;5155253;28;20784;-42
2022/05/29 00:33:44;;;;;;;13.02;3.70;;;;;;;11.98;55.86;101847.31;5156435;28;22066;-42
2022/05/29 00:36:17;;;;;;;9.60;3.60;;;;;;;12.16;55.95;101862.56;5154404;28;20606;-41
2022/05/29 00:38:50;;;;;;;8.55;3.47;;;;;;;12.19;55.80;101859.63;5150961;28;20425;-47
2022/05/29 00:41:28;;;;;;;14.77;4.50;;;;;;;12.19;55.56;101859.63;5156429;28;20863;-41
2022/05/29 00:44:17;;;;;;;17.55;4.40;;;;;;;12.10;55.83;101849.84;5144935;28;20432;-43
2022/05/29 00:46:52;;;;;;;11.43;3.72;;;;;;;12.18;56.13;101857.97;5150504;28;20461;-43
2022/05/29 00:49:29;;;;;;;15.65;4.57;;;;;;;11.86;55.81;101800.75;5152968;28;20499;-43
2022/05/29 00:52:07;;;;;;;7.07;3.25;;;;;;;12.20;55.85;101863.94;5152945;28;20954;-42
2022/05/29 00:54:43;;;;;;;12.98;3.13;;;;;;;12.22;56.04;101875.25;5144157;28;20414;-48
2022/05/29 00:57:19;;;;;;;18.83;4.68;;;;;;;12.08;55.94;101838.53;5151378;28;20431;-48
2022/05/29 00:59:53;;;;;;;19.48;4.55;;;;;;;12.18;55.94;101863.25;5153027;28;20424;-43
2022/05/29 01:02:25;;;;;;;14.85;3.95;;;;;;;12.22;56.24;101854.06;5153839;28;20468;-42
2022/05/29 01:05:03;;;;;;;15.70;4.47;;;;;;;12.24;56.38;101852.13;5155900;28;20424;-41
2022/05/29 01:07:37;;;;;;;12.77;3.40;;;;;;;12.15;56.35;101837.06;5158576;28;20431;-43
2022/05/29 01:10:10;;;;;;;11.03;3.33;;;;;;;12.29;56.28;101843.75;5154005;28;20565;-42
2022/05/29 01:12:54;;;;;;;12.05;3.50;;;;;;;12.20;56.48;101825.09;5153308;28;20418;-41
2022/05/29 01:15:34;;;;;;;10.73;3.85;;;;;;;12.19;56.33;101818.09;5154795;28;20492;-42
2022/05/29 01:18:19;;;;;;;9.30;2.63;;;;;;;12.40;56.44;101841.00;5154958;28;20430;-40
2022/05/29 01:21:14;;;;;;;10.75;3.33;;;;;;;12.40;56.37;101843.66;5156547;28;20437;-44
2022/05/29 01:24:20;;;;;;;11.25;3.42;;;;;;;12.38;56.33;101827.03;5150866;28;20418;-42
2022/05/29 01:27:44;;;;;;;14.63;3.55;;;;;;;12.46;56.33;101836.00;5135924;28;20865;-42
2022/05/29 01:30:21;;;;;;;7.03;3.08;;;;;;;12.44;56.24;101822.03;5132235;28;20397;-42
2022/05/29 01:33:06;;;;;;;9.82;3.35;;;;;;;12.54;56.11;101822.06;5151574;28;20412;-41
2022/05/29 01:35:50;;;;;;;7.97;3.05;;;;;;;12.48;56.26;101808.50;5161052;28;20436;-42
2022/05/29 01:38:28;;;;;;;11.35;3.28;;;;;;;12.46;56.24;101811.31;5151850;28;20960;-42
2022/05/29 01:41:09;;;;;;;12.30;3.60;;;;;;;12.52;56.38;101807.28;5156591;28;20629;-41
2022/05/29 01:43:49;;;;;;;12.93;3.77;;;;;;;12.55;56.31;101807.00;5157881;28;20520;-43
2022/05/29 01:46:27;;;;;;;10.03;3.50;;;;;;;12.54;56.50;101807.94;5149574;28;20472;-41
2022/05/29 01:49:07;;;;;;;13.90;4.72;;;;;;;12.56;56.44;101803.38;5154286;28;21295;-42
2022/05/29 01:51:47;;;;;;;14.30;4.37;;;;;;;12.56;56.59;101800.72;5155108;28;20803;-41
2022/05/29 01:54:25;;;;;;;13.43;4.30;;;;;;;12.63;56.60;101804.47;5150850;28;20514;-43
2022/05/29 01:57:06;;;;;;;13.27;4.40;;;;;;;12.66;56.73;101798.88;5152996;28;20472;-43
2022/05/29 01:59:45;;;;;;;11.77;3.65;;;;;;;12.64;56.82;101795.56;5155846;28;20411;-42
2022/05/29 02:02:24;;;;;;;19.13;4.53;;;;;;;12.71;56.84;101809.91;5154320;28;20542;-43
2022/05/29 02:05:02;;;;;;;16.60;4.88;;;;;;;12.69;56.91;101803.91;5153363;28;20862;-42
2022/05/29 02:07:52;;;;;;;20.05;4.82;;;;;;;12.62;56.96;101792.22;5156913;28;20462;-41
2022/05/29 02:10:32;;;;;;;18.60;4.93;;;;;;;12.68;57.26;101803.09;5148183;28;20483;-41
2022/05/29 02:13:11;;;;;;;15.30;4.35;;;;;;;12.67;57.43;101795.28;5151970;28;20422;-43
2022/05/29 02:15:49;;;;;;;15.23;4.28;;;;;;;12.59;57.37;101790.66;5156623;28;20471;-42
2022/05/29 02:18:31;;;;;;;13.30;3.95;;;;;;;12.65;57.61;101799.88;5155466;28;20983;-45
2022/05/29 02:21:11;;;;;;;15.65;4.75;;;;;;;12.65;57.53;101805.19;5151622;28;21019;-41
2022/05/29 02:23:48;;;;;;;13.97;4.70;;;;;;;12.63;57.72;101800.00;5155658;28;20455;-41
2022/05/29 02:26:25;;;;;;;14.48;4.07;;;;;;;12.66;57.76;101796.25;5142226;28;20769;-43
2022/05/29 02:29:02;;;;;;;13.30;4.37;;;;;;;12.65;57.59;101798.06;5132745;28;20436;-41
2022/05/29 02:31:47;;;;;;;16.20;5.03;;;;;;;12.66;57.99;101793.59;5142843;28;20506;-42
2022/05/29 02:35:00;;;;;;;16.60;5.37;;;;;;;12.67;57.85;101795.28;5144411;28;20413;-44
2022/05/29 02:37:43;;;;;;;12.82;4.63;;;;;;;12.68;57.99;101789.00;5144512;28;20404;-46
2022/05/29 02:40:27;;;;;;;16.25;4.20;;;;;;;12.64;58.22;101791.09;5141465;28;20512;-43
2022/05/29 02:43:07;;;;;;;9.52;4.20;;;;;;;12.65;58.22;101783.97;5140525;28;20401;-47
2022/05/29 02:45:49;;;;;;;11.82;3.88;;;;;;;12.56;58.46;101777.69;5150826;28;20480;-46
2022/05/29 02:48:31;;;;;;;12.63;4.65;;;;;;;12.57;58.49;101770.56;5143532;28;20589;-43
2022/05/29 02:51:12;;;;;;;10.80;4.35;;;;;;;12.59;58.47;101780.06;5140688;28;21013;-44
2022/05/29 02:53:46;;;;;;;10.98;4.30;;;;;;;12.59;58.59;101771.28;5112105;28;20441;-42
2022/05/29 02:56:19;;;;;;;14.98;5.13;;;;;;;12.66;58.35;101772.38;5134198;28;20892;-41
2022/05/29 02:58:55;;;;;;;11.13;5.30;;;;;;;12.62;58.45;101765.72;5144639;28;20400;-43
2022/05/29 03:01:38;;;;;;;16.25;5.35;;;;;;;12.61;58.57;101761.41;5148770;28;20850;-43
2022/05/29 03:04:34;;;;;;;13.48;4.75;;;;;;;12.70;58.65;101773.81;5146476;28;20813;-43
2022/05/29 03:07:25;;;;;;;14.48;4.78;;;;;;;12.63;58.65;101762.91;5142257;28;20522;-43
2022/05/29 03:10:10;;;;;;;13.52;4.60;;;;;;;12.71;58.61;101770.16;5145383;28;20517;-43
2022/05/29 03:12:57;;;;;;;11.30;3.65;;;;;;;12.66;58.62;101761.78;5146172;28;20765;-43
2022/05/29 03:15:44;;;;;;;8.05;3.38;;;;;;;12.73;58.66;101770.00;5146842;28;20455;-43
2022/05/29 03:18:44;;;;;;;9.07;3.40;;;;;;;12.74;58.62;101764.59;5142604;28;20942;-42
2022/05/29 03:21:25;;;;;;;15.33;4.23;;;;;;;12.75;58.81;101770.72;5144332;28;20422;-41
2022/05/29 03:24:10;;;;;;;9.98;4.13;;;;;;;12.74;58.69;101764.59;5145657;28;20459;-44
2022/05/29 03:26:51;;;;;;;15.10;5.00;;;;;;;12.75;58.72;101766.25;5136722;28;20492;-41
2022/05/29 03:29:36;;;;;;;12.77;4.40;;;;;;;12.73;58.79;101760.28;5124571;28;20418;-41
2022/05/29 03:32:09;;;;;;;14.48;4.88;;;;;;;12.75;58.66;101760.94;5136694;28;20422;-41
2022/05/29 03:34:42;;;;;;;14.43;5.05;;;;;;;12.73;58.75;101754.97;5131235;28;20430;-43
2022/05/29 03:37:14;;;;;;;13.35;5.25;;;;;;;12.77;58.76;101751.03;5137591;28;20883;-44
2022/05/29 03:39:48;;;;;;;11.27;4.93;;;;;;;12.79;58.64;101751.75;5136942;28;20794;-42
2022/05/29 03:42:21;;;;;;;9.83;4.33;;;;;;;12.79;58.77;101751.75;5134093;28;20406;-42
2022/05/29 03:44:54;;;;;;;16.05;4.60;;;;;;;12.70;58.64;101742.00;5139104;28;20739;-42
2022/05/29 03:47:27;;;;;;;12.15;3.70;;;;;;;12.79;58.64;101746.44;5132353;28;20427;-44
2022/05/29 03:49:59;;;;;;;15.52;4.97;;;;;;;12.78;58.76;101750.06;5136774;28;20441;-42
2022/05/29 03:52:33;;;;;;;15.15;4.38;;;;;;;12.77;58.78;101748.41;5133417;28;20528;-44
2022/05/29 03:55:10;;;;;;;12.90;4.27;;;;;;;12.29;58.91;101664.47;5137067;28;20448;-43
2022/05/29 03:57:42;;;;;;;16.13;4.33;;;;;;;12.74;58.75;101731.94;5139394;28;20521;-41
2022/05/29 04:00:17;;;;;;;15.77;4.35;;;;;;;12.66;58.80;101724.69;5128657;28;20453;-42
2022/05/29 04:02:50;;;;;;;13.30;4.10;;;;;;;12.70;58.90;101731.41;5128082;28;20917;-43
2022/05/29 04:05:25;;;;;;;13.60;4.68;;;;;;;12.69;58.93;101733.19;5135828;28;20411;-43
2022/05/29 04:13:45;;;;;;;10.48;4.13;;;;;;;12.70;59.06;101726.09;5136546;28;20775;-42
2022/05/29 04:16:18;;;;;;;11.73;4.90;;;;;;;12.65;59.12;101707.94;5137409;28;20891;-42
2022/05/29 04:18:50;;;;;;;15.02;4.25;;;;;;;12.57;59.21;101688.44;5136261;28;20473;-42
2022/05/29 04:21:23;;;;;;;12.57;4.22;;;;;;;12.83;59.28;101716.00;5137926;28;20442;-42
2022/05/29 04:23:55;;;;;;;8.70;3.60;;;;;;;12.81;59.28;101706.53;5133553;28;20503;-43
2022/05/29 04:26:29;;;;;;;15.02;4.60;;;;;;;12.90;59.22;101717.09;5143262;28;20420;-42
2022/05/29 04:29:02;;;;;;;12.07;4.00;;;;;;;12.92;59.31;101715.16;5145268;28;20435;-46
2022/05/29 04:31:35;;;;;;;12.07;3.83;;;;;;;12.89;59.43;101726.03;5139615;28;20471;-45
2022/05/29 04:34:06;;;;;;;18.10;4.50;;;;;;;12.83;59.49;101709.88;5142965;28;20526;-42
2022/05/29 04:36:39;;;;;;;10.75;4.28;;;;;;;12.85;59.58;101708.75;5140167;28;20878;-43
2022/05/29 04:39:11;;;;;;;15.82;3.90;;;;;;;12.92;59.50;101711.69;5146151;28;20479;-42
2022/05/29 04:41:45;;;;;;;14.55;4.00;;;;;;;12.99;59.48;101722.53;5139695;28;20505;-43
2022/05/29 04:44:17;;;;;;;20.58;4.45;;;;;;;13.00;59.48;101710.94;5146270;28;20426;-43
2022/05/29 04:46:50;;;;;;;14.38;4.05;;;;;;;13.05;59.40;101709.53;5137735;28;20416;-42
2022/05/29 04:49:22;;;;;;;12.45;4.60;;;;;;;13.07;59.43;101712.06;5144949;28;20514;-42
2022/05/29 04:51:55;;;;;;;12.88;3.40;;;;;;;13.09;59.50;101715.38;5146781;28;20435;-47
2022/05/29 04:54:27;;;;;;;16.47;4.43;;;;;;;13.11;59.52;101708.13;5147190;28;20505;-43
2022/05/29 04:57:01;;;;;;;11.45;4.10;;;;;;;12.87;59.33;101661.72;5142228;28;20503;-44
2022/05/29 04:59:34;;;;;;;16.48;4.47;;;;;;;13.19;59.41;101710.03;5139455;28;20423;-42
2022/05/29 05:02:07;;;;;;;9.90;4.18;;;;;;;13.20;59.25;101701.94;5143466;28;20431;-42
2022/05/29 05:04:40;;;;;;;14.40;4.15;;;;;;;13.21;59.22;101706.25;5143188;28;20416;-42
2022/05/29 05:07:13;;;;;;;13.02;4.10;;;;;;;13.23;59.19;101706.13;5142960;28;20433;-43
2022/05/29 05:09:45;;;;;;;18.98;4.85;;;;;;;13.24;59.30;101699.84;5146403;28;20821;-45
2022/05/29 05:12:19;;;;;;;12.55;4.28;;;;;;;13.44;59.07;101697.94;5142696;28;20427;-42
2022/05/29 05:14:51;;;;;;;18.67;4.80;;;;;;;13.46;58.93;101680.06;5139342;28;20491;-43
2022/05/29 05:17:24;;;;;;;13.95;3.55;;;;;;;13.92;58.90;101696.84;5148293;28;20421;-43
2022/05/29 05:19:56;;;;;;;16.05;3.85;;;;;;;14.57;58.39;101692.13;5141649;28;20446;-45
2022/05/29 05:22:29;;;;;;;12.20;3.72;;;;;;;16.10;57.20;101692.13;5129993;28;20505;-43
2022/05/29 05:25:02;;;;;;;10.18;3.10;;;;;;;17.77;55.50;101686.06;5136456;28;20927;-51
2022/05/29 05:27:36;;;;;;;8.20;3.03;;;;;;;19.39;53.86;101686.56;5136209;28;20446;-48
2022/05/29 05:30:10;;;;;;;12.55;3.45;;;;;;;20.81;52.16;101700.16;5137172;28;22408;-52
2022/05/29 05:32:42;;;;;;;9.23;2.17;;;;;;;21.92;50.77;101690.13;5130044;28;20445;-46
2022/05/29 05:35:15;;;;;;;9.15;2.05;;;;;;;22.85;49.27;101700.91;5134345;28;20415;-45
2022/05/29 05:37:47;;;;;;;4.90;1.90;;;;;;;23.52;48.16;101695.34;5137349;28;20536;-52
2022/05/29 05:40:20;;;;;;;6.68;2.47;;;;;;;24.14;47.05;101707.25;5125668;28;20438;-45
2022/05/29 05:42:55;;;;;;;7.65;1.92;;;;;;;23.61;46.90;101694.06;5129855;28;20440;-48
2022/05/29 05:45:27;;;;;;;7.07;1.85;;;;;;;22.96;47.14;101684.16;5135737;28;20438;-44
2022/05/29 05:48:00;;;;;;;4.82;1.65;;;;;;;22.53;47.42;101703.44;5134621;28;20533;-48
2022/05/29 05:50:32;;;;;;;7.85;2.15;;;;;;;21.80;47.35;101697.97;5138208;28;20415;-49
2022/05/29 05:53:05;;;;;;;6.68;1.75;;;;;;;20.64;47.76;101670.94;5130144;28;20938;-50
2022/05/29 05:55:39;;;;;;;5.93;1.90;;;;;;;20.01;48.06;101697.63;5132658;28;20481;-50
2022/05/29 05:58:12;;;;;;;4.65;1.48;;;;;;;19.41;48.31;101698.75;5133103;28;20412;-48
2022/05/29 06:00:46;;;;;;;6.05;1.50;;;;;;;18.73;48.53;101676.63;5131982;28;20776;-50
2022/05/29 06:03:19;;;;;;;4.10;1.40;;;;;;;18.22;48.82;101705.00;5130543;28;20461;-44
2022/05/29 06:05:51;;;;;;;3.95;1.45;;;;;;;17.78;48.98;101693.09;5143426;28;20505;-47
2022/05/29 06:08:24;;;;;;;4.47;1.40;;;;;;;17.60;49.03;101706.69;5137529;28;20455;-47
2022/05/29 06:10:56;;;;;;;3.03;1.33;;;;;;;17.23;48.85;101683.31;5134925;28;20773;-48
2022/05/29 06:13:33;;;;;;;4.80;1.15;;;;;;;17.05;48.92;101691.53;5133369;28;20511;-48
2022/05/29 06:16:06;;;;;;;1.55;1.02;;;;;;;17.02;48.50;101700.72;5131627;28;20432;-47
2022/05/29 06:18:39;;;;;;;6.40;1.48;;;;;;;16.96;48.58;101692.56;5136301;28;20528;-47
2022/05/29 06:21:11;;;;;;;5.28;1.65;;;;;;;16.90;48.22;101694.09;5141121;28;20909;-48
2022/05/29 06:23:44;;;;;;;3.75;1.52;;;;;;;16.81;48.13;101689.75;5139241;28;20425;-51
2022/05/29 06:26:16;;;;;;;6.43;1.88;;;;;;;16.88;48.05;101701.44;5150031;28;20503;-45
2022/05/29 06:28:50;;;;;;;6.07;1.92;;;;;;;16.80;47.88;101683.59;5149848;28;20621;-43
2022/05/29 06:31:22;;;;;;;5.22;1.77;;;;;;;16.76;47.81;101692.13;5136713;28;20846;-47
2022/05/29 06:33:56;;;;;;;6.75;1.90;;;;;;;16.70;47.75;101703.44;5156674;28;20446;-47
2022/05/29 06:36:28;;;;;;;3.22;1.42;;;;;;;16.43;47.82;101686.78;5149272;28;20525;-46
2022/05/29 06:39:01;;;;;;;3.15;1.67;;;;;;;16.53;47.92;101703.44;5160018;28;20447;-45
2022/05/29 06:41:34;;;;;;;6.72;2.03;;;;;;;16.72;47.85;101707.63;5151466;28;20562;-46
2022/05/29 06:44:09;;;;;;;6.57;1.83;;;;;;;16.73;47.68;101665.75;5162597;28;20862;-48
2022/05/29 06:46:41;;;;;;;7.00;2.28;;;;;;;17.00;47.58;101697.41;5154399;28;20414;-44
2022/05/29 06:49:14;;;;;;;7.07;2.03;;;;;;;17.22;47.42;101665.66;5146168;28;20448;-50
2022/05/29 06:51:48;;;;;;;9.40;2.20;;;;;;;17.97;46.94;101692.63;5143485;28;20462;-47
2022/05/29 06:54:20;;;;;;;5.75;2.15;;;;;;;18.54;46.37;101690.50;5146416;28;20416;-44
2022/05/29 06:56:53;;;;;;;7.93;2.45;;;;;;;19.00;46.05;101691.22;5154557;28;20436;-48
2022/05/29 06:59:27;;;;;;;9.15;2.70;;;;;;;18.98;45.96;101693.25;5167635;28;20436;-46
2022/05/29 07:07:39;;;;;;;7.47;2.33;;;;;;;17.94;46.46;101698.31;5154549;28;20405;-47
2022/05/29 07:10:12;;;;;;;6.15;1.63;;;;;;;17.37;46.83;101698.59;5156084;28;20746;-47
2022/05/29 07:12:45;;;;;;;9.27;2.33;;;;;;;16.97;47.36;101710.25;5162996;28;20816;-49
2022/05/29 07:15:19;;;;;;;8.27;2.47;;;;;;;16.75;47.50;101706.41;5164912;28;20426;-48
2022/05/29 07:17:51;;;;;;;8.88;3.00;;;;;;;16.40;47.57;101679.13;5154629;28;20534;-45
2022/05/29 07:20:24;;;;;;;9.57;2.40;;;;;;;16.60;47.61;101706.28;5153274;28;20513;-48
2022/05/29 07:22:59;;;;;;;9.82;2.95;;;;;;;16.60;47.72;101704.47;5160024;28;20480;-46
2022/05/29 07:25:32;;;;;;;9.02;2.47;;;;;;;16.90;47.74;101699.41;5153511;28;20492;-49
2022/05/29 07:28:06;;;;;;;10.23;2.15;;;;;;;17.72;47.46;101688.44;5164736;28;20425;-49
2022/05/29 07:30:40;;;;;;;7.13;2.10;;;;;;;18.30;46.88;101702.22;5160169;28;20424;-46
2022/05/29 07:33:12;;;;;;;9.10;2.30;;;;;;;18.37;46.72;101677.28;5158673;28;20460;-45
2022/05/29 07:35:45;;;;;;;9.80;2.45;;;;;;;18.76;46.53;101692.31;5155028;28;20500;-49
2022/05/29 07:38:18;;;;;;;10.02;1.77;;;;;;;19.22;46.36;101686.78;5149228;28;20426;-51
2022/05/29 07:40:50;;;;;;;5.50;2.17;;;;;;;19.48;46.16;101696.16;5154568;28;20909;-48
2022/05/29 07:43:22;;;;;;;5.70;1.40;;;;;;;19.86;45.83;101688.00;5148062;28;20478;-50
2022/05/29 07:45:58;;;;;;;5.67;1.60;;;;;;;19.74;45.57;101636.72;5156162;28;20455;-48
2022/05/29 07:48:34;;;;;;;3.33;1.20;;;;;;;20.48;45.45;101666.66;5137958;28;20799;-48
2022/05/29 07:51:07;;;;;;;4.93;1.33;;;;;;;21.34;44.81;101665.53;5142933;28;20468;-46
2022/05/29 07:53:39;;;;;;;2.53;0.90;;;;;;;22.18;44.24;101683.16;5153073;28;21054;-49
2022/05/29 07:56:12;;;;;;;5.00;1.10;;;;;;;22.80;43.86;101671.09;5132477;28;20485;-46
2022/05/29 07:58:45;;;;;;;6.72;1.23;;;;;;;23.42;43.39;101675.06;5130235;28;20436;-47
2022/05/29 08:01:19;;;;;;;5.13;1.30;;;;;;;23.55;43.16;101673.34;5158530;28;20416;-49
2022/05/29 08:03:51;;;;;;;2.05;0.88;;;;;;;22.74;43.16;101647.72;5149878;28;20761;-47
2022/05/29 08:06:24;;;;;;;4.65;1.10;;;;;;;22.10;43.83;101692.22;5140546;28;20434;-47
2022/05/29 08:08:57;;;;;;;5.07;1.75;;;;;;;21.35;44.13;101688.69;5147591;28;20424;-50
2022/05/29 08:11:29;;;;;;;3.17;1.33;;;;;;;20.83;44.43;101690.06;5160047;28;20420;-48
2022/05/29 08:14:02;;;;;;;4.60;1.55;;;;;;;20.63;44.27;101696.13;5151945;28;20432;-48
2022/05/29 08:16:36;;;;;;;4.57;0.90;;;;;;;20.40;44.51;101695.50;5157542;28;20557;-50
2022/05/29 08:19:09;;;;;;;4.00;1.40;;;;;;;20.30;44.43;101693.16;5121764;28;20452;-52
2022/05/29 08:21:43;;;;;;;4.32;1.10;;;;;;;20.21;44.36;101687.09;5140872;28;21020;-46
2022/05/29 08:32:47;;;;;;;5.07;1.40;;;;;;;20.95;43.35;101667.00;5158160;28;20771;-45
2022/05/29 08:35:19;;;;;;;2.88;1.02;;;;;;;21.31;43.08;101682.06;5157369;28;20427;-43
2022/05/29 08:37:52;;;;;;;4.18;1.33;;;;;;;21.41;42.63;101682.53;5167390;28;20508;-49
2022/05/29 08:40:25;;;;;;;5.73;1.50;;;;;;;21.03;43.20;101684.78;5155985;28;20983;-46
2022/05/29 08:42:58;;;;;;;4.10;1.50;;;;;;;20.75;43.24;101679.47;5151537;28;20431;-47
2022/05/29 08:45:32;;;;;;;6.38;1.67;;;;;;;20.15;43.53;101666.38;5168946;28;20528;-49
2022/05/29 08:48:08;;;;;;;10.05;3.72;;;;;;;19.45;44.02;101696.53;5157203;28;20538;-46
2022/05/29 08:50:48;;;;;;;12.70;2.33;;;;;;;18.82;44.79;101707.63;5160452;28;20536;-45
2022/05/29 08:53:32;;;;;;;11.13;2.72;;;;;;;18.12;45.10;101651.78;5160157;28;20499;-47
2022/05/29 08:56:17;;;;;;;14.90;2.88;;;;;;;18.35;45.19;101689.16;5152415;28;20495;-47
2022/05/29 08:59:09;;;;;;;11.45;2.97;;;;;;;18.15;45.59;101704.88;5156217;28;20440;-46
2022/05/29 09:02:01;;;;;;;15.37;3.67;;;;;;;17.95;46.00;101699.97;5153596;28;20830;-46
2022/05/29 09:04:43;;;;;;;10.73;2.92;;;;;;;17.96;45.99;101690.13;5161613;28;20438;-48
2022/05/29 09:07:18;;;;;;;14.00;3.33;;;;;;;17.93;46.22;101675.28;5157920;28;20429;-48
2022/05/29 09:09:54;;;;;;;15.10;3.40;;;;;;;18.18;46.16;101693.81;5150687;28;20430;-51
2022/05/29 09:12:40;;;;;;;13.05;2.70;;;;;;;18.20;46.39;101702.47;5157980;28;20580;-47
2022/05/29 09:19:10;;;;;;;13.15;2.75;;;;;;;18.23;46.66;101678.06;5155510;28;21147;-48
2022/05/29 09:21:53;;;;;;;5.80;1.83;;;;;;;18.51;46.50;101689.00;5127565;28;20475;-48
2022/05/29 09:24:48;;;;;;;8.10;1.98;;;;;;;18.55;46.54;101689.47;5153122;28;20408;-47
2022/05/29 09:27:20;;;;;;;8.82;2.50;;;;;;;18.55;46.53;101678.78;5153072;28;20493;-44
2022/05/29 09:29:54;;;;;;;7.35;2.50;;;;;;;18.60;46.20;101676.41;5164290;28;20408;-49
2022/05/29 09:32:29;;;;;;;5.03;1.75;;;;;;;18.65;46.16;101663.31;5165421;28;20477;-45
2022/05/29 09:35:17;;;;;;;8.25;1.70;;;;;;;18.60;46.20;101665.69;5153926;28;20766;-45
2022/05/29 09:37:59;;;;;;;6.47;2.28;;;;;;;18.54;45.99;101672.59;5165335;28;20421;-45
2022/05/29 09:40:38;;;;;;;6.38;1.88;;;;;;;18.44;45.95;101672.88;5167966;28;20763;-46
2022/05/29 09:43:17;;;;;;;11.93;2.10;;;;;;;18.54;45.97;101677.94;5149564;28;20463;-48
2022/05/29 09:45:50;;;;;;;9.23;2.10;;;;;;;18.65;45.91;101676.69;5132207;28;20458;-41
2022/05/29 09:51:24;;;;;;;8.55;2.03;;;;;;;18.18;46.02;101678.63;5157436;28;20421;-49
2022/05/29 09:54:01;;;;;;;7.10;1.80;;;;;;;17.72;46.19;101656.38;5162951;28;20417;-47
2022/05/29 09:56:36;;;;;;;7.57;2.15;;;;;;;17.73;46.21;101679.38;5146347;28;20822;-46
2022/05/29 09:59:17;;;;;;;10.15;1.90;;;;;;;17.57;46.25;101660.81;5148791;28;20468;-46
2022/05/29 10:02:01;;;;;;;4.80;1.60;;;;;;;17.75;45.85;101693.41;5158842;28;20431;-48
2022/05/29 10:04:53;;;;;;;9.27;2.27;;;;;;;17.73;45.84;101674.06;5149113;28;20429;-46
2022/05/29 10:07:34;;;;;;;6.63;1.90;;;;;;;17.80;45.77;101672.34;5141595;28;20778;-48
2022/05/29 10:10:13;;;;;;;6.72;1.45;;;;;;;17.94;45.70;101679.63;5144655;28;20799;-44
2022/05/29 10:12:49;;;;;;;10.05;2.20;;;;;;;18.01;45.55;101666.38;5143959;28;20531;-49
2022/05/29 10:15:39;;;;;;;5.40;1.73;;;;;;;18.42;45.15;101674.88;5127724;28;20555;-44
2022/05/29 10:18:33;;;;;;;4.80;1.70;;;;;;;18.68;44.72;101668.31;5142936;28;20425;-46
2022/05/29 10:21:17;;;;;;;4.03;1.33;;;;;;;18.88;44.63;101663.25;5139740;28;20453;-45
2022/05/29 10:23:53;;;;;;;5.78;1.50;;;;;;;18.91;44.42;101673.59;5143760;28;20576;-42
2022/05/29 10:26:35;;;;;;;6.07;1.17;;;;;;;18.59;44.45;101621.25;5114348;28;20435;-48
2022/05/29 10:29:18;;;;;;;5.18;1.95;;;;;;;18.93;44.16;101649.34;5133939;28;20434;-47
2022/05/29 10:31:52;;;;;;;7.25;1.42;;;;;;;19.12;43.84;101664.81;5142774;28;20970;-46
2022/05/29 10:34:28;;;;;;;10.93;2.40;;;;;;;19.28;43.58;101664.63;5142198;28;20419;-44
2022/05/29 10:37:22;;;;;;;5.85;1.80;;;;;;;19.31;43.36;101648.16;5150760;28;20419;-45
2022/05/29 10:40:18;;;;;;;8.88;1.80;;;;;;;19.52;43.10;101649.25;5156514;28;20828;-45
2022/05/29 10:42:56;;;;;;;4.60;1.38;;;;;;;19.83;42.64;101657.03;5145325;28;20783;-46
2022/05/29 10:45:33;;;;;;;4.20;1.08;;;;;;;19.85;42.63;101654.13;5151690;28;20450;-47
2022/05/29 10:48:35;;;;;;;5.95;1.80;;;;;;;19.96;42.53;101661.69;5151708;28;20519;-46
2022/05/29 10:51:17;;;;;;;2.67;1.30;;;;;;;20.10;42.51;101658.13;5145048;28;20498;-45
2022/05/29 10:54:22;;;;;;;6.03;1.27;;;;;;;20.19;42.17;101640.88;5156805;28;20467;-44
2022/05/29 10:57:18;;;;;;;5.10;1.70;;;;;;;20.41;41.65;101632.78;5147245;28;20491;-45
2022/05/29 11:00:14;;;;;;;6.00;1.77;;;;;;;20.73;41.42;101663.56;5151489;28;20477;-45
2022/05/29 11:03:29;;;;;;;5.72;1.10;;;;;;;20.87;41.07;101648.34;5164506;28;20469;-44
2022/05/29 11:06:40;;;;;;;3.90;1.00;;;;;;;20.45;41.42;101650.13;5154719;28;20425;-49
2022/05/29 11:09:47;;;;;;;4.10;1.30;;;;;;;20.21;41.20;101617.34;5148932;28;20428;-50
2022/05/29 11:12:34;;;;;;;4.05;1.30;;;;;;;20.46;41.11;101646.41;5145555;28;20418;-45
2022/05/29 11:15:24;;;;;;;4.00;0.80;;;;;;;20.65;40.91;101647.59;5146685;28;20457;-45
2022/05/29 11:18:39;;;;;;;6.50;3.58;;;;;;;20.57;40.70;101643.25;5151206;28;20921;-46
2022/05/29 11:21:24;;;;;;;5.50;1.40;;;;;;;20.51;40.93;101654.72;5158199;28;20425;-47
2022/05/29 11:24:28;;;;;;;6.93;1.90;;;;;;;20.31;40.98;101648.38;5144449;28;20905;-45
2022/05/29 11:27:13;;;;;;;6.25;2.92;;;;;;;20.33;40.73;101659.75;5126388;28;20967;-46
2022/05/29 11:30:02;;;;;;;3.22;1.40;;;;;;;20.35;40.73;101657.72;5132831;28;20430;-44
2022/05/29 11:33:15;;;;;;;3.43;1.20;;;;;;;20.26;40.92;101659.69;5145912;28;20901;-48
2022/05/29 11:36:23;;;;;;;9.30;3.85;;;;;;;20.14;40.93;101659.38;5120451;28;20443;-46
2022/05/29 11:39:29;;;;;;;6.25;3.35;;;;;;;20.17;40.64;101647.44;5141883;28;21240;-48
2022/05/29 11:42:09;;;;;;;5.33;2.67;;;;;;;20.15;40.61;101652.97;5136028;28;21040;-45
2022/05/29 11:44:51;;;;;;;4.97;1.60;;;;;;;20.16;40.61;101656.50;5154522;28;20569;-44
2022/05/29 11:53:27;;;;;;;4.65;1.20;;;;;;;19.85;41.02;101656.81;5151757;28;20408;-47
2022/05/29 11:56:04;;;;;;;6.72;2.00;;;;;;;19.77;41.06;101661.28;5147680;28;20916;-49
2022/05/29 11:58:46;;;;;;;5.72;1.52;;;;;;;19.43;41.06;101621.72;5141264;28;20521;-46
2022/05/29 12:01:24;;;;;;;2.35;1.20;;;;;;;19.55;41.15;101646.19;5152655;28;20555;-49
2022/05/29 12:04:06;;;;;;;7.78;1.30;;;;;;;19.63;40.96;101650.59;5144634;28;20430;-45
2022/05/29 12:06:46;;;;;;;3.87;1.57;;;;;;;19.74;40.80;101648.28;5148265;28;20489;-47
2022/05/29 12:09:25;;;;;;;6.35;1.55;;;;;;;19.55;40.88;101644.34;5147380;28;20652;-47
2022/05/29 12:12:02;;;;;;;7.15;1.67;;;;;;;19.29;41.29;101663.63;5148264;28;20427;-48
2022/05/29 12:14:39;;;;;;;4.43;1.20;;;;;;;19.06;41.57;101654.84;5149012;28;20926;-49
2022/05/29 12:17:18;;;;;;;7.47;1.90;;;;;;;19.00;41.84;101644.91;5145810;28;20789;-48
2022/05/29 12:19:55;;;;;;;5.47;1.70;;;;;;;19.08;41.28;101628.75;5139096;28;20497;-52
2022/05/29 12:22:35;;;;;;;4.68;1.20;;;;;;;19.33;41.07;101646.16;5143953;28;21031;-47
2022/05/29 12:25:27;;;;;;;4.88;1.73;;;;;;;19.05;41.40;101647.84;5151745;28;20425;-46
2022/05/29 12:28:04;;;;;;;8.35;2.10;;;;;;;18.79;41.35;101632.25;5131155;28;20969;-46
2022/05/29 12:30:41;;;;;;;4.60;1.40;;;;;;;18.79;41.47;101638.44;5131614;28;20510;-44
2022/05/29 12:33:17;;;;;;;6.93;1.67;;;;;;;18.59;41.73;101631.94;5128025;28;20532;-47
2022/05/29 12:35:58;;;;;;;8.68;1.88;;;;;;;18.27;41.50;101590.28;5126814;28;20444;-46
2022/05/29 12:38:58;;;;;;;5.28;1.85;;;;;;;18.56;41.79;101632.31;5127100;28;20450;-48
2022/05/29 12:42:08;;;;;;;3.58;1.52;;;;;;;18.75;41.56;101637.13;5126836;28;20420;-47
2022/05/29 12:45:20;;;;;;;3.35;1.35;;;;;;;18.89;41.31;101606.03;5130303;28;20507;-45
2022/05/29 12:48:54;;;;;;;4.45;1.80;;;;;;;19.12;41.28;101612.09;5115548;28;20470;-53